Home PIREPS Pireps

Flight SAB5039

  • Submitted By: Vincent Fourni
  • Departure Airport: Bruxelles National (EBBR)
  • Arrival Airport: Billund Lufthavn (EKBI)
  • Aircraft: B737-500 (OO-SAB)
  • Flight Time: 01.21
  • Date Submitted: 24/11/2017
  • Status: Accepted
Flight Details
Gross Revenue:
(117 load / € 0.00 per unit
€ 0.00
Fuel Cost:
(11815 fuel used @ 5.1 / unit)
€ 60,256.50

Additional Log Information:

View Log

Aircraft Used in flight is PMDG 777-200LR PMDG Brussels
10:09 Brakes are On
10:11 Brakes are Released
10:14 Brakes are On
10:16 Brakes are Released
10:20 You Took off @ 194 Knots and Flaps at Position 3
Departure Weather
EBBR 240850Z 26003KT 9000 FEW006 SCT019 BKN049 07/07 Q1009 NOSIGrn
10:21 Landing Gear Up @ 201 Knots and 440 Feet
10:22 Below 10000 feet you are not allowed to go over 250 knots
11:25 Landing Gear Down @ 217 Knots and 2990 Feet
11:28 You Landed @ 122 Knots and with -2200 Vertical Speed
Arrival Weather
EKBI 240950Z AUTO 16001KT 9999NDV FEW130/// SCT150/// 05/05 Q1004rn
11:28 Your Landing was very hard
11:28 Paused
11:32 Unpaused
11:32 Brakes are On
11:34 Paused
11:34 Brussels Bel-Track1.0.1.2

Route Map

Corporate About Us Our Team Vacancies Information Fleet Route Network Rules and Regulations Operations Flight Schedules Event Center Tours Partners IVAO Vatsim Acars dev FSCB

fb Users Online No pilots online!
0 Pilot(s) and 150 Guest(s) Online
CMS by phpVMS - Design by Crazycreatives.com - Copyright © 2020 - Brussels Airlines Virtual